Albert, Texas
Current Conditions -  °F | °C
As of 5:55 PM on Friday 28 Nov 2014 (Local Time) from KT82 Reporting Station
Clear Clear  
Wind Chill: 61°   Ceiling: Unl
Heat Index: 61°   Visibility: 10mi
Dew Point: 44°   Wind: 8mph
Humidity: 55%   Direction: 190°S
Pressure: 30.12"   Gusts: NA
Location:  30.2109°N, 98.6562°W
Report Text: KT82 282355Z AUTO 19007KT 10SM CLR 16/07 A3012 RMK AO2 T01590069 10199 20159
Loading
Personal Weather Stations






























Interactive Weather Map New forecast layout! Learn more

10-Day Weather Forecast

Advertisements
Track Severe Weather on mobile